Time;durP1;ratioP1;P1;durP2;ratioP2;P2;SDS_P1;SDS_P2;PMS_P1;PMS_P2;Temp;Humidity;BMP_temperature;BMP_pressure;BME280_temperature;BME280_humidity;BME280_pressure;Samples;Min_cycle;Max_cycle;Signal;HPM_P1;HPM_P2
2023/07/27 00:00:18;;;;;;;6.87;4.20;;;14.10;1.00;;;;;;5073391;28;20979;-71
2023/07/27 00:02:43;;;;;;;8.43;4.38;;;14.10;1.00;;;;;;5091558;28;20505;-71
2023/07/27 00:05:09;;;;;;;8.33;4.50;;;14.10;1.00;;;;;;5090450;28;20427;-71
2023/07/27 00:07:34;;;;;;;9.27;4.53;;;14.10;1.00;;;;;;5091680;28;20763;-70
2023/07/27 00:10:00;;;;;;;9.00;4.97;;;14.10;1.00;;;;;;5090806;28;20886;-71
2023/07/27 00:12:25;;;;;;;7.55;4.80;;;14.10;1.00;;;;;;5091190;28;20405;-71
2023/07/27 00:14:51;;;;;;;8.53;4.67;;;14.10;1.00;;;;;;5090654;28;20390;-72
2023/07/27 00:17:17;;;;;;;9.77;4.70;;;14.10;1.00;;;;;;5090953;28;20763;-72
2023/07/27 00:19:43;;;;;;;7.53;4.78;;;14.10;1.00;;;;;;5091207;28;20756;-72
2023/07/27 00:22:08;;;;;;;10.00;4.47;;;14.00;1.00;;;;;;5091224;28;20405;-71
2023/07/27 00:24:34;;;;;;;7.67;4.50;;;14.00;1.00;;;;;;5090316;28;20426;-71
2023/07/27 00:27:00;;;;;;;7.13;4.45;;;14.00;1.00;;;;;;5089722;28;20655;-71
2023/07/27 00:29:25;;;;;;;9.50;4.90;;;14.00;1.00;;;;;;5090187;28;20425;-71
2023/07/27 00:31:51;;;;;;;7.97;4.53;;;14.00;1.00;;;;;;5090447;28;20409;-71
2023/07/27 00:34:17;;;;;;;8.85;4.88;;;13.90;1.00;;;;;;5090620;28;20449;-71
2023/07/27 00:36:43;;;;;;;9.07;5.40;;;13.90;1.00;;;;;;5091393;28;20405;-69
2023/07/27 00:39:10;;;;;;;9.23;5.30;;;13.90;1.00;;;;;;5090507;28;20394;-70
2023/07/27 00:41:42;;;;;;;9.52;5.40;;;13.90;1.00;;;;;;5091046;28;20394;-71
2023/07/27 00:44:08;;;;;;;7.70;5.50;;;13.80;1.00;;;;;;5064147;28;20437;-70
2023/07/27 00:46:36;;;;;;;8.83;5.37;;;13.80;1.00;;;;;;5090459;28;20402;-71
2023/07/27 00:49:03;;;;;;;9.32;5.47;;;13.80;1.00;;;;;;5090470;28;20409;-71
2023/07/27 00:51:33;;;;;;;9.38;5.75;;;13.80;1.00;;;;;;5089913;28;20402;-70
2023/07/27 00:53:59;;;;;;;9.40;5.80;;;13.70;1.00;;;;;;5090486;28;20411;-71
2023/07/27 00:56:25;;;;;;;10.63;5.82;;;13.70;1.00;;;;;;5090800;28;20403;-70
2023/07/27 00:58:51;;;;;;;8.23;5.40;;;13.70;1.00;;;;;;5090622;28;20405;-72
2023/07/27 01:01:17;;;;;;;11.93;5.93;;;13.70;1.00;;;;;;5090309;28;20903;-72
2023/07/27 01:03:43;;;;;;;9.50;6.43;;;13.70;1.00;;;;;;5090185;28;20418;-72
2023/07/27 01:06:09;;;;;;;8.82;5.90;;;13.70;1.00;;;;;;5089912;28;20883;-72
2023/07/27 01:08:35;;;;;;;10.97;5.77;;;13.70;1.00;;;;;;5072157;28;20494;-72
2023/07/27 01:11:13;;;;;;;10.13;5.40;;;13.70;1.00;;;;;;5090411;28;20394;-72
2023/07/27 01:13:55;;;;;;;10.32;6.30;;;13.70;1.00;;;;;;5090290;28;20922;-72
2023/07/27 01:16:34;;;;;;;9.48;6.28;;;13.70;1.00;;;;;;5083366;28;20486;-70
2023/07/27 01:19:26;;;;;;;9.63;6.10;;;13.70;1.00;;;;;;5090078;28;20413;-71
2023/07/27 01:22:08;;;;;;;11.73;6.20;;;13.70;1.00;;;;;;5089956;28;20402;-72
2023/07/27 01:25:03;;;;;;;10.20;6.40;;;13.70;1.00;;;;;;5090073;28;20452;-71
2023/07/27 01:27:56;;;;;;;9.93;6.07;;;13.70;1.00;;;;;;5045053;28;20410;-71
2023/07/27 01:30:28;;;;;;;12.68;6.57;;;13.70;1.00;;;;;;5086829;28;20402;-72
2023/07/27 01:33:05;;;;;;;11.43;6.63;;;13.80;1.00;;;;;;5089113;28;20406;-72
2023/07/27 01:35:47;;;;;;;12.45;6.97;;;13.80;1.00;;;;;;5071317;28;20417;-72
2023/07/27 01:38:13;;;;;;;12.20;6.70;;;13.80;1.00;;;;;;5089136;28;20424;-70
2023/07/27 01:40:42;;;;;;;11.73;6.40;;;13.80;1.00;;;;;;5089253;28;20488;-70
2023/07/27 01:43:10;;;;;;;11.25;6.40;;;13.70;1.00;;;;;;5089036;28;20953;-71
2023/07/27 01:45:37;;;;;;;10.90;6.57;;;13.80;1.00;;;;;;5070906;28;20402;-71
2023/07/27 01:48:05;;;;;;;11.77;6.28;;;13.80;1.00;;;;;;5089570;28;20418;-71
2023/07/27 01:50:32;;;;;;;14.10;7.00;;;13.80;1.00;;;;;;5089479;28;20425;-72
2023/07/27 01:52:59;;;;;;;10.48;6.20;;;13.80;1.00;;;;;;5089711;28;20497;-72
2023/07/27 01:55:26;;;;;;;10.00;6.13;;;13.70;1.00;;;;;;5089452;28;20401;-72
2023/07/27 01:57:53;;;;;;;11.50;6.57;;;13.70;1.00;;;;;;5089129;28;20389;-72
2023/07/27 02:00:19;;;;;;;10.55;6.38;;;13.70;1.00;;;;;;5089164;28;20929;-72
2023/07/27 02:02:46;;;;;;;11.63;6.30;;;13.70;1.00;;;;;;5088532;28;20417;-71
2023/07/27 02:05:12;;;;;;;12.50;6.88;;;13.70;1.00;;;;;;5088703;28;20402;-71
2023/07/27 02:07:38;;;;;;;12.90;6.80;;;13.70;1.00;;;;;;5089022;28;20995;-70
2023/07/27 02:10:03;;;;;;;10.25;6.40;;;13.70;1.00;;;;;;5088880;28;20477;-71
2023/07/27 02:12:37;;;;;;;11.60;6.80;;;13.70;1.00;;;;;;5089009;28;20398;-70
2023/07/27 02:15:07;;;;;;;10.20;6.27;;;13.70;1.00;;;;;;5088394;28;20402;-71
2023/07/27 02:17:40;;;;;;;11.25;6.30;;;13.70;1.00;;;;;;5088647;28;20451;-71
2023/07/27 02:20:12;;;;;;;11.95;6.32;;;13.70;1.00;;;;;;5088705;28;20764;-72
2023/07/27 02:22:40;;;;;;;10.15;6.00;;;13.70;1.00;;;;;;5078547;28;20948;-72
2023/07/27 02:25:06;;;;;;;10.93;6.40;;;13.70;1.00;;;;;;5088312;28;20438;-71
2023/07/27 02:27:33;;;;;;;11.50;6.05;;;13.70;1.00;;;;;;5088913;28;20401;-71
2023/07/27 02:29:59;;;;;;;9.63;5.90;;;13.60;1.00;;;;;;5088029;28;20922;-71
2023/07/27 02:32:25;;;;;;;10.57;6.50;;;13.60;1.00;;;;;;5089084;28;20406;-72
2023/07/27 02:34:50;;;;;;;11.18;6.57;;;13.70;1.00;;;;;;5088768;28;20394;-71
2023/07/27 02:37:16;;;;;;;9.73;5.77;;;13.70;1.00;;;;;;5088330;28;20405;-70
2023/07/27 02:39:41;;;;;;;10.33;6.33;;;13.60;1.00;;;;;;5088761;28;20903;-70
2023/07/27 02:42:07;;;;;;;10.80;5.93;;;13.70;1.00;;;;;;5070571;28;20443;-71
2023/07/27 02:44:33;;;;;;;9.57;5.67;;;13.70;1.00;;;;;;5088415;28;20422;-72
2023/07/27 02:46:58;;;;;;;9.85;5.70;;;13.70;1.00;;;;;;5087742;28;20409;-72
2023/07/27 02:49:24;;;;;;;10.13;6.30;;;13.70;1.00;;;;;;5088305;28;20414;-72
2023/07/27 02:51:49;;;;;;;10.33;5.97;;;13.80;1.00;;;;;;5088340;28;20413;-72
2023/07/27 02:54:15;;;;;;;11.48;6.78;;;13.70;1.00;;;;;;5088187;28;20398;-72
2023/07/27 02:56:41;;;;;;;11.10;6.30;;;13.70;1.00;;;;;;5068879;28;20492;-71
2023/07/27 02:59:06;;;;;;;10.90;6.43;;;13.70;1.00;;;;;;5087175;28;20755;-72
2023/07/27 03:01:32;;;;;;;10.03;6.23;;;13.70;1.00;;;;;;5069557;28;20506;-72
2023/07/27 03:03:57;;;;;;;12.30;6.35;;;13.70;1.00;;;;;;5086703;28;20422;-71
2023/07/27 03:06:23;;;;;;;9.37;6.07;;;13.70;1.00;;;;;;5087087;28;20863;-71
2023/07/27 03:08:48;;;;;;;11.17;6.13;;;13.70;1.00;;;;;;5083360;28;20407;-71
2023/07/27 03:11:14;;;;;;;11.88;6.32;;;13.70;1.00;;;;;;5101724;28;20903;-71
2023/07/27 03:13:39;;;;;;;11.47;6.23;;;13.70;1.00;;;;;;5086215;28;20455;-71
2023/07/27 03:16:05;;;;;;;10.90;6.50;;;13.70;1.00;;;;;;5087291;28;20394;-72
2023/07/27 03:18:31;;;;;;;10.53;5.93;;;13.70;1.00;;;;;;5087158;28;20445;-71
2023/07/27 03:20:57;;;;;;;10.68;6.57;;;13.70;1.00;;;;;;5086913;28;20423;-72
2023/07/27 03:23:22;;;;;;;10.13;6.60;;;13.80;1.00;;;;;;5087078;28;20463;-71
2023/07/27 03:25:48;;;;;;;11.52;6.60;;;13.70;1.00;;;;;;5087192;28;20398;-72
2023/07/27 03:28:13;;;;;;;11.30;6.73;;;13.70;1.00;;;;;;5087103;28;20879;-72
2023/07/27 03:30:39;;;;;;;10.32;6.47;;;13.80;1.00;;;;;;5086876;28;20406;-72
2023/07/27 03:33:06;;;;;;;10.77;6.80;;;13.80;1.00;;;;;;5086984;28;20892;-72
2023/07/27 03:35:33;;;;;;;12.38;6.47;;;13.80;1.00;;;;;;5068932;28;20417;-71
2023/07/27 03:37:58;;;;;;;10.52;6.50;;;13.80;1.00;;;;;;5086679;28;20524;-72
2023/07/27 03:40:24;;;;;;;11.30;6.70;;;13.80;1.00;;;;;;5086605;28;20873;-71
2023/07/27 03:42:50;;;;;;;11.10;6.37;;;13.90;1.00;;;;;;5087086;28;20424;-72
2023/07/27 03:45:16;;;;;;;9.50;6.07;;;13.90;1.00;;;;;;5086599;28;20402;-72
2023/07/27 03:47:42;;;;;;;12.32;6.80;;;13.90;1.00;;;;;;5086862;28;20410;-71
2023/07/27 03:50:08;;;;;;;13.05;6.80;;;13.90;1.00;;;;;;5068176;28;20387;-71
2023/07/27 03:52:34;;;;;;;10.25;6.40;;;13.90;1.00;;;;;;5086968;28;20405;-72
2023/07/27 03:55:00;;;;;;;9.77;6.25;;;13.90;1.00;;;;;;5086602;28;20843;-71
2023/07/27 03:57:25;;;;;;;10.70;6.60;;;13.90;1.00;;;;;;5086727;28;20506;-72
2023/07/27 03:59:55;;;;;;;11.20;6.68;;;13.90;1.00;;;;;;5086468;28;20433;-72
2023/07/27 04:02:22;;;;;;;10.93;6.38;;;13.90;1.00;;;;;;5086280;28;20398;-71
2023/07/27 04:04:47;;;;;;;11.93;6.82;;;13.90;1.00;;;;;;5086423;28;20796;-71
2023/07/27 04:07:13;;;;;;;11.40;6.47;;;13.90;1.00;;;;;;5086627;28;20410;-71
2023/07/27 04:09:39;;;;;;;10.03;6.40;;;13.90;1.00;;;;;;5086714;28;20477;-72
2023/07/27 04:12:05;;;;;;;10.32;6.30;;;14.00;1.00;;;;;;5085656;28;20826;-70
2023/07/27 04:14:30;;;;;;;10.80;6.90;;;14.00;1.00;;;;;;5085884;28;20487;-70
2023/07/27 04:16:56;;;;;;;11.93;6.90;;;14.00;1.00;;;;;;5086281;28;20900;-70
2023/07/27 04:19:22;;;;;;;9.37;5.83;;;14.00;1.00;;;;;;5086667;28;20402;-71
2023/07/27 04:21:47;;;;;;;9.60;6.22;;;14.10;1.00;;;;;;5067895;28;20402;-71
2023/07/27 04:24:13;;;;;;;9.27;6.47;;;14.10;1.00;;;;;;5087024;28;20770;-71
2023/07/27 04:26:38;;;;;;;10.88;6.50;;;14.10;1.00;;;;;;5090161;28;20398;-71
2023/07/27 04:29:04;;;;;;;9.30;6.00;;;14.20;1.00;;;;;;5072723;28;20410;-72
2023/07/27 04:31:29;;;;;;;10.30;6.30;;;14.10;1.00;;;;;;5090067;28;20479;-72
2023/07/27 04:33:55;;;;;;;8.98;6.10;;;14.10;1.00;;;;;;5089966;28;20398;-71
2023/07/27 04:36:21;;;;;;;10.67;6.30;;;14.20;1.00;;;;;;5090950;28;20438;-71
2023/07/27 04:38:46;;;;;;;10.95;6.03;;;14.20;1.00;;;;;;5090187;28;20398;-72
2023/07/27 04:41:12;;;;;;;11.87;6.20;;;14.20;1.00;;;;;;5090617;28;20455;-72
2023/07/27 04:43:37;;;;;;;12.30;6.15;;;14.20;1.00;;;;;;5090338;28;20433;-72
2023/07/27 04:46:03;;;;;;;10.57;6.20;;;14.30;1.00;;;;;;5090502;28;20406;-72
2023/07/27 04:48:29;;;;;;;10.83;6.53;;;14.30;1.00;;;;;;5072823;28;20430;-71
2023/07/27 04:50:54;;;;;;;12.63;6.47;;;14.30;1.00;;;;;;5090631;28;20498;-72
2023/07/27 04:53:20;;;;;;;10.30;6.30;;;14.30;1.00;;;;;;5090211;28;20409;-72
2023/07/27 04:55:46;;;;;;;9.15;6.25;;;14.40;1.00;;;;;;5085957;28;20836;-71
2023/07/27 04:58:11;;;;;;;9.82;6.05;;;14.40;1.00;;;;;;5085389;28;20398;-72
2023/07/27 05:00:37;;;;;;;10.80;6.23;;;14.40;1.00;;;;;;5072389;28;20400;-72
2023/07/27 05:03:03;;;;;;;10.02;6.22;;;14.40;1.00;;;;;;5089681;28;20436;-71
2023/07/27 05:05:28;;;;;;;11.43;6.28;;;14.50;1.00;;;;;;5090341;28;20451;-69
2023/07/27 05:07:54;;;;;;;10.03;7.03;;;14.50;1.00;;;;;;5090278;28;20398;-71
2023/07/27 05:10:19;;;;;;;10.95;7.05;;;14.60;1.00;;;;;;5090107;28;20394;-71
2023/07/27 05:12:45;;;;;;;13.07;7.57;;;14.60;1.00;;;;;;5090241;28;20759;-71
2023/07/27 05:15:11;;;;;;;11.40;7.20;;;14.60;1.00;;;;;;5089612;28;21139;-72
2023/07/27 05:17:36;;;;;;;10.10;6.67;;;14.60;1.00;;;;;;5081668;28;20462;-71
2023/07/27 05:20:02;;;;;;;12.17;7.30;;;14.60;1.90;;;;;;5090013;28;20402;-71
2023/07/27 05:22:28;;;;;;;12.98;7.00;;;14.60;2.20;;;;;;5090237;28;20398;-71
2023/07/27 05:24:53;;;;;;;13.13;7.63;;;14.60;4.20;;;;;;5089978;28;20494;-71
2023/07/27 05:27:19;;;;;;;11.60;7.40;;;14.60;4.90;;;;;;5089610;28;20413;-71
2023/07/27 05:29:45;;;;;;;12.50;7.73;;;14.60;6.50;;;;;;5089907;28;20466;-71
2023/07/27 05:32:10;;;;;;;11.82;7.50;;;14.70;8.20;;;;;;5071876;28;20412;-71
2023/07/27 05:34:36;;;;;;;11.77;7.07;;;14.70;11.60;;;;;;5090170;28;20485;-70
2023/07/27 05:37:01;;;;;;;11.02;7.22;;;14.70;12.20;;;;;;5088530;28;20437;-71
2023/07/27 05:39:30;;;;;;;12.17;7.57;;;14.80;13.30;;;;;;5071273;28;20416;-71
2023/07/27 05:41:56;;;;;;;11.27;7.72;;;14.80;14.60;;;;;;5089506;28;20401;-70
2023/07/27 05:44:21;;;;;;;10.67;7.43;;;14.80;14.70;;;;;;5088732;28;20476;-71
2023/07/27 05:46:49;;;;;;;14.63;7.50;;;14.80;14.10;;;;;;5086203;28;20563;-71
2023/07/27 05:49:15;;;;;;;12.35;7.28;;;14.80;14.70;;;;;;5089666;28;20410;-71
2023/07/27 05:51:40;;;;;;;11.97;7.73;;;14.90;15.70;;;;;;5088325;28;20398;-71
2023/07/27 05:54:06;;;;;;;9.88;6.90;;;14.90;17.70;;;;;;5070120;28;20436;-71
2023/07/27 05:56:31;;;;;;;10.23;6.93;;;14.90;18.10;;;;;;5088573;28;20764;-71
2023/07/27 05:58:57;;;;;;;13.13;7.80;;;14.90;17.30;;;;;;5070873;28;20476;-71
2023/07/27 06:01:22;;;;;;;10.27;7.20;;;14.80;18.70;;;;;;5089216;28;20398;-71
2023/07/27 06:03:48;;;;;;;10.80;6.90;;;14.80;19.10;;;;;;5089100;28;20430;-71
2023/07/27 06:06:14;;;;;;;9.88;7.60;;;14.80;19.40;;;;;;5070914;28;20402;-72
2023/07/27 06:08:41;;;;;;;10.65;7.00;;;14.90;21.00;;;;;;5089137;28;20455;-71
2023/07/27 06:11:09;;;;;;;11.95;7.40;;;14.80;22.40;;;;;;5088953;28;20425;-72
2023/07/27 06:13:35;;;;;;;13.65;7.60;;;14.80;23.90;;;;;;5088972;28;20398;-72
2023/07/27 06:16:02;;;;;;;13.27;7.40;;;14.80;24.80;;;;;;5070503;28;20394;-71
2023/07/27 06:18:27;;;;;;;12.18;7.82;;;14.80;25.40;;;;;;5089265;28;20401;-72
2023/07/27 06:20:53;;;;;;;14.37;8.07;;;14.80;24.90;;;;;;5088451;28;20398;-72
2023/07/27 06:23:19;;;;;;;11.85;7.82;;;14.80;25.50;;;;;;5070610;28;20511;-71
2023/07/27 06:25:45;;;;;;;13.47;7.93;;;14.70;26.50;;;;;;5088713;28;20833;-72
2023/07/27 06:28:11;;;;;;;12.43;7.82;;;14.60;27.90;;;;;;5088953;28;20404;-72
2023/07/27 06:30:38;;;;;;;12.50;8.10;;;14.60;29.00;;;;;;5088345;28;20768;-71
2023/07/27 06:33:05;;;;;;;14.07;8.40;;;14.60;30.70;;;;;;5088492;28;20446;-71
2023/07/27 06:35:31;;;;;;;15.13;8.20;;;14.60;33.60;;;;;;5070361;28;20418;-71
2023/07/27 06:37:57;;;;;;;14.27;8.18;;;14.60;35.70;;;;;;5088140;28;20394;-70
2023/07/27 06:40:23;;;;;;;12.23;7.80;;;14.60;38.40;;;;;;5088275;28;20660;-71
2023/07/27 06:42:48;;;;;;;12.20;7.50;;;14.70;41.60;;;;;;5088702;28;20401;-70
2023/07/27 06:45:14;;;;;;;12.60;7.87;;;14.70;43.90;;;;;;5088369;28;20399;-71
2023/07/27 06:47:39;;;;;;;11.40;7.32;;;14.80;45.90;;;;;;5087428;28;20443;-71
2023/07/27 06:50:06;;;;;;;10.07;6.85;;;14.80;47.20;;;;;;5087967;28;20402;-71
2023/07/27 06:52:32;;;;;;;10.68;6.57;;;14.90;48.70;;;;;;5069728;28;20401;-71
2023/07/27 06:54:57;;;;;;;10.68;6.53;;;15.00;50.90;;;;;;5087556;28;20475;-71
2023/07/27 06:57:26;;;;;;;9.47;5.70;;;15.10;51.00;;;;;;5087515;28;20437;-70
2023/07/27 06:59:52;;;;;;;8.75;5.45;;;15.10;52.00;;;;;;5088239;28;20477;-71
2023/07/27 07:02:18;;;;;;;8.77;6.00;;;15.20;52.20;;;;;;5087969;28;20469;-71
2023/07/27 07:04:45;;;;;;;8.75;5.72;;;15.30;49.80;;;;;;5069306;28;20437;-71
2023/07/27 07:07:11;;;;;;;8.52;5.90;;;15.30;49.80;;;;;;5069631;28;20452;-71
2023/07/27 07:09:37;;;;;;;9.07;5.63;;;15.30;51.00;;;;;;5087323;28;20489;-71
2023/07/27 07:12:04;;;;;;;9.88;6.38;;;15.40;49.50;;;;;;5087293;28;20540;-71
2023/07/27 07:14:30;;;;;;;8.85;6.03;;;15.50;50.00;;;;;;5070066;28;20440;-71
2023/07/27 07:16:55;;;;;;;9.93;6.43;;;15.50;50.50;;;;;;5087545;28;20426;-71
2023/07/27 07:19:21;;;;;;;10.32;6.35;;;15.60;50.30;;;;;;5087569;28;20394;-71
2023/07/27 07:21:47;;;;;;;10.77;6.20;;;15.60;51.20;;;;;;5088240;28;20398;-71
2023/07/27 07:24:13;;;;;;;8.75;5.72;;;15.70;52.90;;;;;;5087817;28;21122;-71
2023/07/27 07:26:38;;;;;;;10.00;6.23;;;15.80;55.10;;;;;;5069699;28;20416;-71
2023/07/27 07:29:04;;;;;;;9.68;6.25;;;16.00;54.30;;;;;;5081226;28;20418;-71
2023/07/27 07:31:30;;;;;;;10.50;6.60;;;16.10;53.60;;;;;;5082508;28;20463;-71
2023/07/27 07:33:56;;;;;;;9.27;6.35;;;16.20;52.40;;;;;;5087542;28;20451;-71
2023/07/27 07:36:22;;;;;;;9.32;6.05;;;16.20;48.00;;;;;;5087553;28;20772;-71
2023/07/27 07:38:47;;;;;;;8.55;5.85;;;16.20;43.50;;;;;;5068953;28;20413;-71
2023/07/27 07:41:13;;;;;;;8.60;6.03;;;16.20;42.80;;;;;;5087669;28;20398;-71
2023/07/27 07:43:41;;;;;;;11.40;6.47;;;16.20;42.00;;;;;;5087822;28;20425;-71
2023/07/27 07:46:14;;;;;;;10.93;6.47;;;16.20;41.20;;;;;;5087363;28;20410;-70
2023/07/27 07:48:39;;;;;;;9.50;6.70;;;16.20;40.40;;;;;;5078727;28;20979;-71
2023/07/27 07:51:12;;;;;;;10.73;6.60;;;16.20;41.30;;;;;;5087002;28;20473;-71
2023/07/27 07:53:38;;;;;;;9.88;6.50;;;16.20;39.60;;;;;;5086944;28;20402;-71
2023/07/27 07:56:04;;;;;;;9.40;6.43;;;16.20;40.60;;;;;;5086861;28;20398;-71
2023/07/27 07:58:30;;;;;;;9.00;6.28;;;16.30;41.00;;;;;;5087745;28;20448;-71
2023/07/27 08:00:56;;;;;;;8.45;5.95;;;16.30;40.10;;;;;;5090112;28;20390;-71
2023/07/27 08:03:22;;;;;;;7.87;5.60;;;16.30;38.20;;;;;;5091353;28;20433;-71
2023/07/27 08:05:48;;;;;;;9.20;5.25;;;16.30;33.10;;;;;;5090137;28;20398;-71
2023/07/27 08:08:13;;;;;;;7.20;5.00;;;16.30;33.70;;;;;;5073208;28;20402;-71
2023/07/27 08:10:39;;;;;;;6.90;4.93;;;16.40;34.00;;;;;;5091169;28;20395;-71
2023/07/27 08:13:05;;;;;;;9.53;5.47;;;16.40;32.90;;;;;;5091511;28;20405;-70
2023/07/27 08:15:30;;;;;;;6.43;5.07;;;16.50;31.80;;;;;;5090816;28;20406;-71
2023/07/27 08:17:56;;;;;;;8.37;5.57;;;16.50;30.80;;;;;;5091447;28;20409;-71
2023/07/27 08:20:22;;;;;;;7.50;5.38;;;16.40;27.90;;;;;;5091018;28;20801;-71
2023/07/27 08:22:47;;;;;;;8.90;5.50;;;16.40;24.70;;;;;;5072778;28;20394;-72
2023/07/27 08:25:14;;;;;;;7.38;5.40;;;16.40;24.60;;;;;;5090959;28;20402;-72
2023/07/27 08:27:40;;;;;;;8.40;5.30;;;16.40;25.20;;;;;;5091177;28;20782;-70
2023/07/27 08:30:07;;;;;;;8.20;5.67;;;16.40;26.70;;;;;;5090331;28;20399;-71
2023/07/27 08:32:33;;;;;;;8.45;5.20;;;16.40;26.10;;;;;;5091604;28;20472;-71
2023/07/27 08:34:58;;;;;;;6.65;5.20;;;16.40;25.00;;;;;;5090701;28;20524;-71
2023/07/27 08:37:24;;;;;;;7.83;5.07;;;16.40;26.60;;;;;;5072771;28;20405;-71
2023/07/27 08:39:50;;;;;;;8.00;5.40;;;16.40;26.20;;;;;;5090441;28;20809;-71
2023/07/27 08:42:16;;;;;;;7.45;5.05;;;16.50;24.90;;;;;;5090822;28;21046;-71
2023/07/27 08:44:46;;;;;;;8.10;4.88;;;16.50;26.20;;;;;;5090781;28;20504;-71
2023/07/27 08:47:11;;;;;;;6.60;5.00;;;16.40;27.50;;;;;;5072203;28;20410;-70
2023/07/27 08:49:39;;;;;;;7.25;4.72;;;16.40;26.20;;;;;;5090628;28;20899;-71
2023/07/27 08:52:05;;;;;;;6.45;3.95;;;16.40;25.40;;;;;;5090700;28;20504;-71
2023/07/27 08:54:31;;;;;;;5.63;4.13;;;16.40;27.10;;;;;;5090159;28;20406;-71
2023/07/27 08:56:56;;;;;;;6.78;4.28;;;16.40;26.80;;;;;;5090413;28;20398;-71
2023/07/27 08:59:25;;;;;;;5.10;3.60;;;16.40;27.30;;;;;;5072488;28;20505;-71
2023/07/27 09:01:51;;;;;;;5.72;3.92;;;16.40;28.10;;;;;;5090675;28;20499;-71
2023/07/27 09:04:17;;;;;;;4.10;3.30;;;16.40;27.70;;;;;;5090118;28;20927;-71
2023/07/27 09:06:44;;;;;;;6.00;3.13;;;16.50;28.40;;;;;;5090173;28;20390;-71
2023/07/27 09:09:14;;;;;;;3.95;2.75;;;16.50;28.40;;;;;;5090392;28;20394;-71
2023/07/27 09:11:41;;;;;;;5.50;2.75;;;16.50;29.10;;;;;;5085897;28;20406;-71
2023/07/27 09:14:07;;;;;;;3.47;2.60;;;16.50;28.10;;;;;;5090192;28;20421;-70
2023/07/27 09:16:37;;;;;;;4.43;2.90;;;16.50;28.50;;;;;;5090212;28;20803;-71
2023/07/27 09:19:04;;;;;;;3.60;2.85;;;16.50;28.80;;;;;;5090334;28;20402;-71
2023/07/27 09:21:44;;;;;;;4.93;3.10;;;16.50;28.60;;;;;;5090148;28;20398;-71
2023/07/27 09:24:14;;;;;;;3.63;2.97;;;16.60;29.70;;;;;;5085514;28;20425;-71
2023/07/27 09:26:59;;;;;;;4.53;3.40;;;16.60;28.80;;;;;;5090290;28;20409;-71
2023/07/27 09:29:25;;;;;;;3.75;3.08;;;16.60;30.00;;;;;;5083240;28;20410;-71
2023/07/27 09:31:52;;;;;;;4.40;3.60;;;16.60;29.00;;;;;;5089846;28;20386;-71
2023/07/27 09:34:20;;;;;;;5.95;4.00;;;16.60;29.30;;;;;;5071427;28;20760;-71
2023/07/27 09:36:46;;;;;;;5.38;4.03;;;16.60;34.80;;;;;;5089363;28;20402;-71
2023/07/27 09:39:13;;;;;;;5.80;4.60;;;16.70;40.00;;;;;;5071107;28;20438;-71
2023/07/27 09:41:43;;;;;;;4.78;4.20;;;16.70;42.40;;;;;;5089476;28;20441;-71
2023/07/27 09:44:21;;;;;;;4.43;3.97;;;16.70;41.40;;;;;;5089504;28;20430;-71
2023/07/27 09:46:47;;;;;;;4.63;4.13;;;16.70;40.20;;;;;;5089186;28;20406;-71
2023/07/27 09:49:16;;;;;;;4.93;4.43;;;16.70;41.10;;;;;;5088779;28;20783;-71
2023/07/27 09:51:43;;;;;;;5.60;4.97;;;16.60;39.30;;;;;;5089696;28;20389;-71
2023/07/27 09:54:08;;;;;;;4.78;4.35;;;16.60;41.50;;;;;;5071455;28;20484;-71
2023/07/27 09:56:34;;;;;;;4.63;4.20;;;16.60;43.50;;;;;;5089290;28;20551;-71
2023/07/27 09:59:00;;;;;;;5.03;4.53;;;16.70;44.10;;;;;;5089569;28;20490;-71
2023/07/27 10:01:27;;;;;;;5.30;4.77;;;16.70;49.10;;;;;;5088902;28;20901;-70
2023/07/27 10:03:57;;;;;;;5.78;4.25;;;16.70;50.80;;;;;;5088975;28;20440;-71
2023/07/27 10:06:24;;;;;;;5.20;4.63;;;16.80;50.10;;;;;;5070047;28;20440;-71
2023/07/27 10:08:50;;;;;;;6.25;4.45;;;16.80;50.10;;;;;;5088212;28;20413;-71
2023/07/27 10:11:16;;;;;;;5.37;4.40;;;16.80;49.10;;;;;;5070003;28;20399;-71
2023/07/27 10:13:43;;;;;;;5.28;4.50;;;16.80;48.10;;;;;;5087509;28;20493;-71
2023/07/27 10:16:16;;;;;;;5.45;4.30;;;16.80;46.40;;;;;;5087951;28;20402;-71
2023/07/27 10:18:46;;;;;;;5.15;4.22;;;16.90;44.40;;;;;;5087939;28;20759;-71
2023/07/27 10:21:21;;;;;;;5.72;4.20;;;16.90;47.10;;;;;;5084303;28;20406;-71
2023/07/27 10:23:58;;;;;;;4.55;3.67;;;17.00;47.40;;;;;;5084106;28;20796;-71
2023/07/27 10:26:52;;;;;;;4.65;3.78;;;17.10;44.90;;;;;;5069789;28;20421;-71
2023/07/27 10:29:23;;;;;;;4.10;3.55;;;17.10;41.60;;;;;;5079862;28;20459;-71
2023/07/27 10:32:04;;;;;;;4.72;3.80;;;17.20;39.90;;;;;;5068925;28;20927;-71
2023/07/27 10:34:32;;;;;;;4.43;3.67;;;17.10;37.40;;;;;;5087806;28;20405;-71
2023/07/27 10:37:03;;;;;;;3.90;3.50;;;17.10;34.80;;;;;;5069165;28;20405;-72
2023/07/27 10:39:46;;;;;;;4.70;3.80;;;17.20;36.50;;;;;;5087777;28;20398;-71
2023/07/27 10:42:15;;;;;;;4.30;3.60;;;17.20;37.40;;;;;;5079048;28;20659;-71
2023/07/27 10:44:45;;;;;;;3.83;3.47;;;17.30;36.10;;;;;;5087123;28;20432;-71
2023/07/27 10:47:13;;;;;;;4.25;3.45;;;17.20;34.10;;;;;;5102217;28;20445;-71
2023/07/27 10:49:44;;;;;;;3.70;3.30;;;17.20;32.80;;;;;;5087094;28;20459;-71
2023/07/27 10:52:14;;;;;;;3.90;3.22;;;17.10;33.50;;;;;;5087993;28;20401;-72
2023/07/27 10:54:41;;;;;;;5.38;3.70;;;17.10;35.00;;;;;;5083348;28;20975;-72
2023/07/27 10:57:09;;;;;;;4.70;4.20;;;17.10;37.70;;;;;;5052468;28;20480;-71
2023/07/27 10:59:46;;;;;;;5.03;4.55;;;17.10;42.20;;;;;;5086879;28;20402;-72
2023/07/27 11:02:14;;;;;;;5.10;4.60;;;17.10;47.80;;;;;;5068916;28;20471;-71
2023/07/27 11:04:41;;;;;;;4.80;4.35;;;17.10;48.30;;;;;;5087223;28;21099;-72
2023/07/27 11:07:10;;;;;;;5.10;4.60;;;17.10;49.70;;;;;;5087134;28;20426;-72
2023/07/27 11:09:36;;;;;;;4.70;4.23;;;17.10;51.90;;;;;;5087034;28;20402;-72
2023/07/27 11:12:02;;;;;;;5.53;3.65;;;17.10;53.10;;;;;;5086738;28;20455;-72
2023/07/27 11:14:27;;;;;;;4.63;3.03;;;17.10;53.40;;;;;;5087669;28;20405;-72
2023/07/27 11:16:53;;;;;;;3.90;3.20;;;17.10;53.00;;;;;;5088007;28;20408;-71
2023/07/27 11:19:19;;;;;;;4.10;3.20;;;17.00;53.10;;;;;;5088266;28;20394;-71
2023/07/27 11:21:45;;;;;;;3.85;3.55;;;17.00;54.70;;;;;;5088332;28;20398;-72
2023/07/27 11:24:13;;;;;;;4.13;3.73;;;17.00;55.00;;;;;;5087852;28;20425;-72
2023/07/27 11:26:38;;;;;;;4.82;4.38;;;16.90;55.80;;;;;;5087732;28;20398;-71
2023/07/27 11:29:06;;;;;;;5.10;4.60;;;16.90;57.90;;;;;;5069871;28;20741;-72
2023/07/27 11:31:32;;;;;;;5.07;4.50;;;17.00;58.50;;;;;;5087940;28;20952;-71
2023/07/27 11:33:58;;;;;;;4.77;4.27;;;17.00;58.70;;;;;;5087965;28;20398;-71
2023/07/27 11:36:32;;;;;;;4.75;4.20;;;16.90;58.90;;;;;;5091908;28;20763;-71
2023/07/27 11:38:59;;;;;;;5.00;4.50;;;16.90;60.00;;;;;;5083609;28;20417;-71
2023/07/27 11:41:27;;;;;;;5.38;4.70;;;16.90;61.80;;;;;;5090785;28;20625;-72
2023/07/27 11:43:55;;;;;;;5.20;4.38;;;17.00;63.40;;;;;;5091447;28;20808;-72
2023/07/27 11:46:21;;;;;;;6.50;5.00;;;17.00;64.70;;;;;;5085287;28;20419;-71
2023/07/27 11:48:50;;;;;;;5.35;4.43;;;17.10;67.30;;;;;;5091303;28;20439;-71
2023/07/27 11:51:16;;;;;;;5.63;4.80;;;17.00;67.40;;;;;;5090910;28;20502;-72
2023/07/27 11:53:44;;;;;;;6.13;5.07;;;17.10;68.40;;;;;;5091025;28;20405;-71
2023/07/27 11:56:10;;;;;;;5.75;5.15;;;17.10;70.60;;;;;;5090682;28;20402;-72
2023/07/27 11:58:37;;;;;;;6.20;5.47;;;17.10;73.50;;;;;;5091040;28;20794;-71
2023/07/27 12:01:03;;;;;;;6.45;5.20;;;17.20;74.60;;;;;;5089978;28;20516;-71
2023/07/27 12:03:34;;;;;;;6.00;5.50;;;17.40;75.60;;;;;;5090685;28;20504;-71
2023/07/27 12:06:03;;;;;;;6.22;5.63;;;17.50;76.20;;;;;;5086714;28;20409;-71
2023/07/27 12:08:30;;;;;;;5.72;5.22;;;17.60;76.20;;;;;;5090930;28;20398;-72
2023/07/27 12:10:59;;;;;;;5.05;4.63;;;17.60;74.50;;;;;;5090204;28;20412;-72
2023/07/27 12:13:26;;;;;;;4.43;4.00;;;17.50;72.60;;;;;;5090540;28;20435;-71
2023/07/27 12:15:56;;;;;;;5.43;4.17;;;17.50;72.10;;;;;;5090860;28;20401;-72
2023/07/27 12:18:25;;;;;;;3.92;3.53;;;17.40;72.10;;;;;;5090381;28;20402;-71
2023/07/27 12:20:50;;;;;;;4.53;3.70;;;17.40;73.00;;;;;;5089616;28;20866;-71
2023/07/27 12:23:16;;;;;;;4.20;3.80;;;17.40;72.20;;;;;;5071844;28;20491;-72
2023/07/27 12:25:42;;;;;;;4.10;3.63;;;17.40;73.30;;;;;;5090574;28;20729;-72
2023/07/27 12:28:08;;;;;;;3.85;3.20;;;17.50;74.60;;;;;;5072276;28;20467;-71
2023/07/27 12:30:33;;;;;;;4.78;3.80;;;17.50;75.20;;;;;;5090308;28;20403;-71
2023/07/27 12:32:59;;;;;;;3.30;3.00;;;17.60;75.60;;;;;;5090223;28;20401;-71
2023/07/27 12:35:25;;;;;;;3.60;3.30;;;17.60;75.80;;;;;;5089312;28;21263;-71
2023/07/27 12:37:50;;;;;;;3.35;3.00;;;17.60;75.10;;;;;;5085771;28;21724;-71
2023/07/27 12:40:16;;;;;;;7.78;4.30;;;17.60;75.00;;;;;;5089612;28;20796;-71
2023/07/27 12:42:42;;;;;;;3.70;3.33;;;17.60;75.40;;;;;;5090047;28;20405;-71
2023/07/27 12:45:08;;;;;;;3.53;2.97;;;17.60;75.50;;;;;;5071535;28;20884;-71
2023/07/27 12:47:33;;;;;;;3.83;3.27;;;17.60;76.40;;;;;;5090598;28;20414;-71